Girouxville, Canada
Current Conditions -  °F | °C
As of 7:00 AM on Monday 20 Oct 2014 (Local Time) from CYPE Reporting Station
Few Clouds Few Clouds  
Wind Chill: 27°   Ceiling: Unl
Heat Index: 32°   Visibility: 15mi
Dew Point: 30°   Wind: 5mph
Humidity: 93%   Direction: 290°WNW
Pressure: 29.5"   Gusts: NA
Location:  55.75°N, 117.33°W
Report Text: CYPE 201300Z 29004KT 15SM FEW250 00/M01 A2950 RMK CI1 SLP007
Loading
Personal Weather Stations






























Interactive Weather Map New forecast layout! Learn more

10-Day Weather Forecast

Advertisements
Track Severe Weather on mobile